sensor_id;sensor_type;location;lat;lon;timestamp;P1;durP1;ratioP1;P2;durP2;ratioP2
21761;SDS011;11203;50.870;20.682;2023-04-07T00:00:21;16.60;;;9.43;;
21761;SDS011;11203;50.870;20.682;2023-04-07T00:03:07;13.38;;;8.50;;
21761;SDS011;11203;50.870;20.682;2023-04-07T00:05:33;9.02;;;5.90;;
21761;SDS011;11203;50.870;20.682;2023-04-07T00:07:59;10.07;;;5.55;;
21761;SDS011;11203;50.870;20.682;2023-04-07T00:10:25;16.95;;;9.20;;
21761;SDS011;11203;50.870;20.682;2023-04-07T00:12:51;12.07;;;7.18;;
21761;SDS011;11203;50.870;20.682;2023-04-07T00:15:17;12.23;;;5.18;;
21761;SDS011;11203;50.870;20.682;2023-04-07T00:17:43;18.23;;;11.60;;
21761;SDS011;11203;50.870;20.682;2023-04-07T00:20:10;10.70;;;6.78;;
21761;SDS011;11203;50.870;20.682;2023-04-07T00:22:36;12.77;;;5.25;;
21761;SDS011;11203;50.870;20.682;2023-04-07T00:25:03;11.30;;;7.15;;
21761;SDS011;11203;50.870;20.682;2023-04-07T00:27:29;16.02;;;9.68;;
21761;SDS011;11203;50.870;20.682;2023-04-07T00:29:56;11.15;;;7.38;;
21761;SDS011;11203;50.870;20.682;2023-04-07T00:32:22;16.95;;;11.18;;
21761;SDS011;11203;50.870;20.682;2023-04-07T00:34:48;17.15;;;10.90;;
21761;SDS011;11203;50.870;20.682;2023-04-07T00:37:14;11.50;;;7.10;;
21761;SDS011;11203;50.870;20.682;2023-04-07T00:39:40;9.27;;;5.40;;
21761;SDS011;11203;50.870;20.682;2023-04-07T00:42:07;9.60;;;6.53;;
21761;SDS011;11203;50.870;20.682;2023-04-07T00:44:33;10.02;;;6.75;;
21761;SDS011;11203;50.870;20.682;2023-04-07T00:47:01;10.43;;;7.03;;
21761;SDS011;11203;50.870;20.682;2023-04-07T00:49:27;12.60;;;8.38;;
21761;SDS011;11203;50.870;20.682;2023-04-07T00:51:54;9.02;;;4.57;;
21761;SDS011;11203;50.870;20.682;2023-04-07T00:54:22;9.35;;;6.50;;
21761;SDS011;11203;50.870;20.682;2023-04-07T00:56:49;9.52;;;6.32;;
21761;SDS011;11203;50.870;20.682;2023-04-07T00:59:17;11.27;;;7.90;;
21761;SDS011;11203;50.870;20.682;2023-04-07T01:04:28;19.65;;;4.30;;
21761;SDS011;11203;50.870;20.682;2023-04-07T01:07:05;9.75;;;6.57;;
21761;SDS011;11203;50.870;20.682;2023-04-07T01:09:42;6.28;;;4.47;;
21761;SDS011;11203;50.870;20.682;2023-04-07T01:15:28;15.10;;;10.00;;
21761;SDS011;11203;50.870;20.682;2023-04-07T01:17:58;19.17;;;10.85;;
21761;SDS011;11203;50.870;20.682;2023-04-07T01:20:40;18.30;;;11.02;;
21761;SDS011;11203;50.870;20.682;2023-04-07T01:23:08;8.02;;;5.47;;
21761;SDS011;11203;50.870;20.682;2023-04-07T01:29:06;18.77;;;10.98;;
21761;SDS011;11203;50.870;20.682;2023-04-07T01:32:15;23.20;;;12.55;;
21761;SDS011;11203;50.870;20.682;2023-04-07T01:34:44;17.65;;;9.65;;
21761;SDS011;11203;50.870;20.682;2023-04-07T01:37:15;18.52;;;9.38;;
21761;SDS011;11203;50.870;20.682;2023-04-07T01:39:42;10.27;;;6.10;;
21761;SDS011;11203;50.870;20.682;2023-04-07T01:42:08;20.55;;;10.10;;
21761;SDS011;11203;50.870;20.682;2023-04-07T01:44:35;14.40;;;8.63;;
21761;SDS011;11203;50.870;20.682;2023-04-07T01:47:02;13.80;;;7.07;;
21761;SDS011;11203;50.870;20.682;2023-04-07T01:49:29;11.00;;;6.85;;
21761;SDS011;11203;50.870;20.682;2023-04-07T01:51:56;21.63;;;8.98;;
21761;SDS011;11203;50.870;20.682;2023-04-07T01:54:23;28.48;;;12.45;;
21761;SDS011;11203;50.870;20.682;2023-04-07T01:56:51;29.90;;;12.88;;
21761;SDS011;11203;50.870;20.682;2023-04-07T01:59:17;16.05;;;8.10;;
21761;SDS011;11203;50.870;20.682;2023-04-07T02:01:43;20.85;;;10.77;;
21761;SDS011;11203;50.870;20.682;2023-04-07T02:07:12;11.25;;;5.97;;
21761;SDS011;11203;50.870;20.682;2023-04-07T02:09:45;32.20;;;14.43;;
21761;SDS011;11203;50.870;20.682;2023-04-07T02:12:14;20.10;;;8.60;;
21761;SDS011;11203;50.870;20.682;2023-04-07T02:14:41;11.68;;;6.00;;
21761;SDS011;11203;50.870;20.682;2023-04-07T02:17:09;11.48;;;5.28;;
21761;SDS011;11203;50.870;20.682;2023-04-07T02:19:36;13.77;;;6.90;;
21761;SDS011;11203;50.870;20.682;2023-04-07T02:22:03;30.65;;;14.18;;
21761;SDS011;11203;50.870;20.682;2023-04-07T02:24:30;9.70;;;5.90;;
21761;SDS011;11203;50.870;20.682;2023-04-07T02:26:56;33.08;;;14.18;;
21761;SDS011;11203;50.870;20.682;2023-04-07T02:29:25;22.50;;;11.45;;
21761;SDS011;11203;50.870;20.682;2023-04-07T02:31:51;25.88;;;11.23;;
21761;SDS011;11203;50.870;20.682;2023-04-07T02:34:17;10.32;;;3.95;;
21761;SDS011;11203;50.870;20.682;2023-04-07T02:36:43;26.45;;;11.15;;
21761;SDS011;11203;50.870;20.682;2023-04-07T02:39:09;13.27;;;7.28;;
21761;SDS011;11203;50.870;20.682;2023-04-07T02:41:36;17.58;;;8.05;;
21761;SDS011;11203;50.870;20.682;2023-04-07T02:44:02;25.08;;;11.23;;
21761;SDS011;11203;50.870;20.682;2023-04-07T02:46:28;23.15;;;10.98;;
21761;SDS011;11203;50.870;20.682;2023-04-07T02:48:54;29.92;;;14.18;;
21761;SDS011;11203;50.870;20.682;2023-04-07T02:51:20;25.15;;;10.77;;
21761;SDS011;11203;50.870;20.682;2023-04-07T02:53:46;25.77;;;11.60;;
21761;SDS011;11203;50.870;20.682;2023-04-07T02:56:12;8.48;;;5.53;;
21761;SDS011;11203;50.870;20.682;2023-04-07T02:58:40;9.18;;;5.13;;
21761;SDS011;11203;50.870;20.682;2023-04-07T03:01:06;28.65;;;11.82;;
21761;SDS011;11203;50.870;20.682;2023-04-07T03:03:32;10.95;;;5.88;;
21761;SDS011;11203;50.870;20.682;2023-04-07T03:05:58;18.77;;;10.13;;
21761;SDS011;11203;50.870;20.682;2023-04-07T03:08:24;14.32;;;7.25;;
21761;SDS011;11203;50.870;20.682;2023-04-07T03:10:51;35.03;;;15.65;;
21761;SDS011;11203;50.870;20.682;2023-04-07T03:13:17;24.75;;;12.07;;
21761;SDS011;11203;50.870;20.682;2023-04-07T03:15:45;19.17;;;10.48;;
21761;SDS011;11203;50.870;20.682;2023-04-07T03:18:11;16.25;;;8.52;;
21761;SDS011;11203;50.870;20.682;2023-04-07T03:20:37;35.80;;;14.30;;
21761;SDS011;11203;50.870;20.682;2023-04-07T03:23:06;14.43;;;6.95;;
21761;SDS011;11203;50.870;20.682;2023-04-07T03:25:32;14.15;;;6.00;;
21761;SDS011;11203;50.870;20.682;2023-04-07T03:27:59;19.50;;;9.82;;
21761;SDS011;11203;50.870;20.682;2023-04-07T03:30:25;24.77;;;10.85;;
21761;SDS011;11203;50.870;20.682;2023-04-07T03:32:51;18.90;;;7.35;;
21761;SDS011;11203;50.870;20.682;2023-04-07T03:35:17;17.27;;;9.15;;
21761;SDS011;11203;50.870;20.682;2023-04-07T03:37:43;12.27;;;6.90;;
21761;SDS011;11203;50.870;20.682;2023-04-07T03:40:10;22.48;;;10.45;;
21761;SDS011;11203;50.870;20.682;2023-04-07T03:42:36;12.55;;;5.32;;
21761;SDS011;11203;50.870;20.682;2023-04-07T03:45:02;14.15;;;6.97;;
21761;SDS011;11203;50.870;20.682;2023-04-07T03:47:28;23.48;;;10.75;;
21761;SDS011;11203;50.870;20.682;2023-04-07T03:49:55;37.42;;;16.20;;
21761;SDS011;11203;50.870;20.682;2023-04-07T03:52:21;14.02;;;7.35;;
21761;SDS011;11203;50.870;20.682;2023-04-07T03:54:49;15.57;;;7.60;;
21761;SDS011;11203;50.870;20.682;2023-04-07T03:57:15;17.70;;;9.05;;
21761;SDS011;11203;50.870;20.682;2023-04-07T03:59:41;15.27;;;7.85;;
21761;SDS011;11203;50.870;20.682;2023-04-07T04:02:07;26.67;;;11.25;;
21761;SDS011;11203;50.870;20.682;2023-04-07T04:04:33;19.42;;;10.23;;
21761;SDS011;11203;50.870;20.682;2023-04-07T04:06:59;11.15;;;4.55;;
21761;SDS011;11203;50.870;20.682;2023-04-07T04:09:25;31.40;;;13.40;;
21761;SDS011;11203;50.870;20.682;2023-04-07T04:11:52;15.13;;;7.25;;
21761;SDS011;11203;50.870;20.682;2023-04-07T04:14:20;22.52;;;10.20;;
21761;SDS011;11203;50.870;20.682;2023-04-07T04:16:46;31.77;;;12.77;;
21761;SDS011;11203;50.870;20.682;2023-04-07T04:19:12;25.45;;;11.75;;
21761;SDS011;11203;50.870;20.682;2023-04-07T04:21:38;40.55;;;13.63;;
21761;SDS011;11203;50.870;20.682;2023-04-07T04:24:04;36.42;;;13.23;;
21761;SDS011;11203;50.870;20.682;2023-04-07T04:26:30;8.07;;;4.18;;
21761;SDS011;11203;50.870;20.682;2023-04-07T04:28:56;10.40;;;4.05;;
21761;SDS011;11203;50.870;20.682;2023-04-07T04:31:22;18.75;;;9.07;;
21761;SDS011;11203;50.870;20.682;2023-04-07T04:33:49;32.70;;;14.00;;
21761;SDS011;11203;50.870;20.682;2023-04-07T04:36:15;22.92;;;9.43;;
21761;SDS011;11203;50.870;20.682;2023-04-07T04:38:41;20.65;;;8.50;;
21761;SDS011;11203;50.870;20.682;2023-04-07T04:41:07;31.00;;;11.48;;
21761;SDS011;11203;50.870;20.682;2023-04-07T04:43:33;49.80;;;17.13;;
21761;SDS011;11203;50.870;20.682;2023-04-07T04:45:59;74.65;;;18.95;;
21761;SDS011;11203;50.870;20.682;2023-04-07T04:48:25;52.83;;;18.20;;
21761;SDS011;11203;50.870;20.682;2023-04-07T04:50:52;28.05;;;12.52;;
21761;SDS011;11203;50.870;20.682;2023-04-07T04:53:18;52.08;;;19.00;;
21761;SDS011;11203;50.870;20.682;2023-04-07T04:55:44;32.97;;;14.75;;
21761;SDS011;11203;50.870;20.682;2023-04-07T04:58:16;78.90;;;21.33;;
21761;SDS011;11203;50.870;20.682;2023-04-07T05:00:44;78.35;;;25.17;;
21761;SDS011;11203;50.870;20.682;2023-04-07T05:03:10;17.60;;;8.40;;
21761;SDS011;11203;50.870;20.682;2023-04-07T05:05:36;41.05;;;13.98;;
21761;SDS011;11203;50.870;20.682;2023-04-07T05:08:03;61.97;;;18.08;;
21761;SDS011;11203;50.870;20.682;2023-04-07T05:10:29;37.90;;;13.40;;
21761;SDS011;11203;50.870;20.682;2023-04-07T05:12:55;75.28;;;17.30;;
21761;SDS011;11203;50.870;20.682;2023-04-07T05:15:21;42.10;;;14.57;;
21761;SDS011;11203;50.870;20.682;2023-04-07T05:17:48;59.55;;;18.77;;
21761;SDS011;11203;50.870;20.682;2023-04-07T05:20:14;60.20;;;18.02;;
21761;SDS011;11203;50.870;20.682;2023-04-07T05:22:41;79.68;;;20.70;;
21761;SDS011;11203;50.870;20.682;2023-04-07T05:25:07;92.10;;;19.70;;
21761;SDS011;11203;50.870;20.682;2023-04-07T05:27:34;45.50;;;14.52;;
21761;SDS011;11203;50.870;20.682;2023-04-07T05:30:00;58.15;;;17.75;;
21761;SDS011;11203;50.870;20.682;2023-04-07T05:32:27;70.80;;;21.08;;
21761;SDS011;11203;50.870;20.682;2023-04-07T05:34:53;47.47;;;16.60;;
21761;SDS011;11203;50.870;20.682;2023-04-07T05:37:20;30.98;;;13.60;;
21761;SDS011;11203;50.870;20.682;2023-04-07T05:39:45;42.50;;;13.45;;
21761;SDS011;11203;50.870;20.682;2023-04-07T05:42:12;25.70;;;10.82;;
21761;SDS011;11203;50.870;20.682;2023-04-07T05:44:38;60.70;;;18.23;;
21761;SDS011;11203;50.870;20.682;2023-04-07T05:47:04;28.95;;;12.57;;
21761;SDS011;11203;50.870;20.682;2023-04-07T05:49:36;104.15;;;25.33;;
21761;SDS011;11203;50.870;20.682;2023-04-07T05:52:02;24.13;;;11.05;;
21761;SDS011;11203;50.870;20.682;2023-04-07T05:54:30;111.18;;;29.05;;
21761;SDS011;11203;50.870;20.682;2023-04-07T05:56:56;64.72;;;20.40;;
21761;SDS011;11203;50.870;20.682;2023-04-07T05:59:22;41.50;;;14.70;;
21761;SDS011;11203;50.870;20.682;2023-04-07T06:01:48;59.78;;;17.60;;
21761;SDS011;11203;50.870;20.682;2023-04-07T06:04:14;58.25;;;18.10;;
21761;SDS011;11203;50.870;20.682;2023-04-07T06:06:40;81.15;;;21.48;;
21761;SDS011;11203;50.870;20.682;2023-04-07T06:09:06;23.38;;;8.45;;
21761;SDS011;11203;50.870;20.682;2023-04-07T06:11:35;67.25;;;18.23;;
21761;SDS011;11203;50.870;20.682;2023-04-07T06:14:01;62.63;;;16.92;;
21761;SDS011;11203;50.870;20.682;2023-04-07T06:16:27;32.17;;;9.68;;
21761;SDS011;11203;50.870;20.682;2023-04-07T06:18:53;34.55;;;13.13;;
21761;SDS011;11203;50.870;20.682;2023-04-07T06:21:20;53.15;;;18.38;;
21761;SDS011;11203;50.870;20.682;2023-04-07T06:23:45;36.65;;;12.25;;
21761;SDS011;11203;50.870;20.682;2023-04-07T06:26:12;37.28;;;10.35;;
21761;SDS011;11203;50.870;20.682;2023-04-07T06:28:38;20.67;;;7.60;;
21761;SDS011;11203;50.870;20.682;2023-04-07T06:31:04;41.05;;;14.90;;
21761;SDS011;11203;50.870;20.682;2023-04-07T06:33:32;42.70;;;13.10;;
21761;SDS011;11203;50.870;20.682;2023-04-07T06:35:58;45.00;;;15.15;;
21761;SDS011;11203;50.870;20.682;2023-04-07T06:38:24;34.38;;;10.63;;
21761;SDS011;11203;50.870;20.682;2023-04-07T06:40:51;16.25;;;8.65;;
21761;SDS011;11203;50.870;20.682;2023-04-07T06:43:17;9.77;;;5.38;;
21761;SDS011;11203;50.870;20.682;2023-04-07T06:45:43;14.13;;;7.57;;
21761;SDS011;11203;50.870;20.682;2023-04-07T06:48:09;37.20;;;13.25;;
21761;SDS011;11203;50.870;20.682;2023-04-07T06:50:36;36.22;;;11.52;;
21761;SDS011;11203;50.870;20.682;2023-04-07T06:53:03;20.33;;;9.25;;
21761;SDS011;11203;50.870;20.682;2023-04-07T06:55:30;10.73;;;5.63;;
21761;SDS011;11203;50.870;20.682;2023-04-07T06:57:56;24.40;;;10.52;;
21761;SDS011;11203;50.870;20.682;2023-04-07T07:00:22;35.25;;;13.80;;
21761;SDS011;11203;50.870;20.682;2023-04-07T07:02:48;32.28;;;13.25;;
21761;SDS011;11203;50.870;20.682;2023-04-07T07:05:15;25.00;;;9.55;;
21761;SDS011;11203;50.870;20.682;2023-04-07T07:07:41;25.48;;;11.70;;
21761;SDS011;11203;50.870;20.682;2023-04-07T07:10:07;17.00;;;8.07;;
21761;SDS011;11203;50.870;20.682;2023-04-07T07:12:37;42.50;;;14.70;;
21761;SDS011;11203;50.870;20.682;2023-04-07T07:15:03;34.22;;;13.73;;
21761;SDS011;11203;50.870;20.682;2023-04-07T07:17:30;18.45;;;9.82;;
21761;SDS011;11203;50.870;20.682;2023-04-07T07:19:56;13.10;;;7.80;;
21761;SDS011;11203;50.870;20.682;2023-04-07T07:22:22;17.05;;;7.93;;
21761;SDS011;11203;50.870;20.682;2023-04-07T07:24:48;12.30;;;6.93;;
21761;SDS011;11203;50.870;20.682;2023-04-07T07:27:15;22.92;;;10.63;;
21761;SDS011;11203;50.870;20.682;2023-04-07T07:29:41;18.73;;;7.95;;
21761;SDS011;11203;50.870;20.682;2023-04-07T07:32:07;49.20;;;19.88;;
21761;SDS011;11203;50.870;20.682;2023-04-07T07:34:33;37.88;;;17.98;;
21761;SDS011;11203;50.870;20.682;2023-04-07T07:36:59;42.40;;;20.25;;
21761;SDS011;11203;50.870;20.682;2023-04-07T07:39:26;35.35;;;15.68;;
21761;SDS011;11203;50.870;20.682;2023-04-07T07:41:52;34.58;;;15.98;;
21761;SDS011;11203;50.870;20.682;2023-04-07T07:44:18;52.83;;;22.65;;
21761;SDS011;11203;50.870;20.682;2023-04-07T07:46:44;39.03;;;19.75;;
21761;SDS011;11203;50.870;20.682;2023-04-07T07:49:11;48.47;;;21.92;;
21761;SDS011;11203;50.870;20.682;2023-04-07T07:51:36;49.00;;;23.35;;
21761;SDS011;11203;50.870;20.682;2023-04-07T07:54:03;57.72;;;25.88;;
21761;SDS011;11203;50.870;20.682;2023-04-07T07:56:28;50.72;;;23.42;;
21761;SDS011;11203;50.870;20.682;2023-04-07T07:58:55;23.98;;;12.60;;
21761;SDS011;11203;50.870;20.682;2023-04-07T08:01:21;44.17;;;20.27;;
21761;SDS011;11203;50.870;20.682;2023-04-07T08:03:47;29.00;;;13.18;;
21761;SDS011;11203;50.870;20.682;2023-04-07T08:06:13;21.80;;;12.48;;
21761;SDS011;11203;50.870;20.682;2023-04-07T08:08:41;14.20;;;8.30;;
21761;SDS011;11203;50.870;20.682;2023-04-07T08:11:07;27.27;;;13.32;;
21761;SDS011;11203;50.870;20.682;2023-04-07T08:13:33;43.53;;;22.30;;
21761;SDS011;11203;50.870;20.682;2023-04-07T08:15:59;33.97;;;20.35;;
21761;SDS011;11203;50.870;20.682;2023-04-07T08:18:25;28.77;;;16.13;;
21761;SDS011;11203;50.870;20.682;2023-04-07T08:20:51;38.63;;;20.77;;
21761;SDS011;11203;50.870;20.682;2023-04-07T08:23:18;24.55;;;14.07;;
21761;SDS011;11203;50.870;20.682;2023-04-07T08:25:44;21.52;;;13.60;;
21761;SDS011;11203;50.870;20.682;2023-04-07T08:28:10;26.23;;;16.38;;
21761;SDS011;11203;50.870;20.682;2023-04-07T08:30:36;27.85;;;16.50;;
21761;SDS011;11203;50.870;20.682;2023-04-07T08:33:04;28.75;;;16.40;;
21761;SDS011;11203;50.870;20.682;2023-04-07T08:35:30;30.33;;;17.40;;
21761;SDS011;11203;50.870;20.682;2023-04-07T08:37:56;39.50;;;21.05;;
21761;SDS011;11203;50.870;20.682;2023-04-07T08:40:22;31.65;;;16.35;;
21761;SDS011;11203;50.870;20.682;2023-04-07T08:42:49;36.03;;;19.60;;
21761;SDS011;11203;50.870;20.682;2023-04-07T08:45:16;32.53;;;17.00;;
21761;SDS011;11203;50.870;20.682;2023-04-07T08:47:45;25.35;;;14.55;;
21761;SDS011;11203;50.870;20.682;2023-04-07T08:50:14;27.00;;;15.88;;
21761;SDS011;11203;50.870;20.682;2023-04-07T08:52:49;24.17;;;14.38;;
21761;SDS011;11203;50.870;20.682;2023-04-07T08:55:21;17.17;;;10.57;;
21761;SDS011;11203;50.870;20.682;2023-04-07T08:57:48;29.13;;;17.85;;
21761;SDS011;11203;50.870;20.682;2023-04-07T09:00:15;22.25;;;15.73;;
21761;SDS011;11203;50.870;20.682;2023-04-07T09:02:42;32.92;;;20.17;;
21761;SDS011;11203;50.870;20.682;2023-04-07T09:05:10;30.80;;;18.85;;
21761;SDS011;11203;50.870;20.682;2023-04-07T09:07:39;27.23;;;15.20;;
21761;SDS011;11203;50.870;20.682;2023-04-07T09:10:07;18.13;;;10.00;;
21761;SDS011;11203;50.870;20.682;2023-04-07T09:12:34;31.38;;;14.52;;
21761;SDS011;11203;50.870;20.682;2023-04-07T09:15:00;35.15;;;19.77;;
21761;SDS011;11203;50.870;20.682;2023-04-07T09:17:27;43.65;;;25.98;;
21761;SDS011;11203;50.870;20.682;2023-04-07T09:19:57;34.78;;;22.10;;
21761;SDS011;11203;50.870;20.682;2023-04-07T09:30:24;32.83;;;20.50;;
21761;SDS011;11203;50.870;20.682;2023-04-07T09:32:52;57.47;;;28.20;;
21761;SDS011;11203;50.870;20.682;2023-04-07T09:35:18;60.17;;;25.67;;
21761;SDS011;11203;50.870;20.682;2023-04-07T09:38:00;42.92;;;21.65;;
21761;SDS011;11203;50.870;20.682;2023-04-07T09:40:32;28.92;;;18.20;;
21761;SDS011;11203;50.870;20.682;2023-04-07T09:43:00;19.88;;;12.30;;
21761;SDS011;11203;50.870;20.682;2023-04-07T09:45:29;33.13;;;19.45;;
21761;SDS011;11203;50.870;20.682;2023-04-07T09:47:56;13.50;;;7.78;;
21761;SDS011;11203;50.870;20.682;2023-04-07T09:50:37;23.17;;;14.65;;
21761;SDS011;11203;50.870;20.682;2023-04-07T09:53:05;23.48;;;14.02;;
21761;SDS011;11203;50.870;20.682;2023-04-07T09:55:33;19.10;;;12.27;;
21761;SDS011;11203;50.870;20.682;2023-04-07T09:58:01;22.05;;;14.23;;
21761;SDS011;11203;50.870;20.682;2023-04-07T10:00:29;23.35;;;15.45;;
21761;SDS011;11203;50.870;20.682;2023-04-07T10:02:55;17.77;;;11.60;;
21761;SDS011;11203;50.870;20.682;2023-04-07T10:05:21;21.63;;;13.93;;
21761;SDS011;11203;50.870;20.682;2023-04-07T10:07:49;24.83;;;15.38;;
21761;SDS011;11203;50.870;20.682;2023-04-07T10:10:16;25.58;;;15.32;;
21761;SDS011;11203;50.870;20.682;2023-04-07T10:12:42;25.02;;;15.77;;
21761;SDS011;11203;50.870;20.682;2023-04-07T10:15:11;31.02;;;16.77;;
21761;SDS011;11203;50.870;20.682;2023-04-07T10:17:40;29.23;;;17.98;;
21761;SDS011;11203;50.870;20.682;2023-04-07T10:20:12;29.48;;;18.33;;
21761;SDS011;11203;50.870;20.682;2023-04-07T10:22:45;39.05;;;23.63;;
21761;SDS011;11203;50.870;20.682;2023-04-07T10:25:15;38.63;;;23.60;;
21761;SDS011;11203;50.870;20.682;2023-04-07T10:27:48;38.40;;;21.50;;
21761;SDS011;11203;50.870;20.682;2023-04-07T10:32:51;51.88;;;30.70;;
21761;SDS011;11203;50.870;20.682;2023-04-07T10:35:19;67.93;;;37.38;;
21761;SDS011;11203;50.870;20.682;2023-04-07T10:40:31;69.25;;;37.45;;
21761;SDS011;11203;50.870;20.682;2023-04-07T10:42:58;65.40;;;36.75;;
21761;SDS011;11203;50.870;20.682;2023-04-07T10:48:16;72.13;;;38.78;;
21761;SDS011;11203;50.870;20.682;2023-04-07T10:50:44;71.20;;;40.47;;
21761;SDS011;11203;50.870;20.682;2023-04-07T10:53:14;85.10;;;44.83;;
21761;SDS011;11203;50.870;20.682;2023-04-07T10:55:41;88.97;;;49.72;;
21761;SDS011;11203;50.870;20.682;2023-04-07T10:58:32;85.32;;;45.85;;
21761;SDS011;11203;50.870;20.682;2023-04-07T11:03:28;80.78;;;44.58;;
21761;SDS011;11203;50.870;20.682;2023-04-07T11:06:03;72.43;;;39.50;;
21761;SDS011;11203;50.870;20.682;2023-04-07T11:08:33;77.97;;;41.08;;
21761;SDS011;11203;50.870;20.682;2023-04-07T11:11:04;70.22;;;36.60;;
21761;SDS011;11203;50.870;20.682;2023-04-07T11:13:40;64.88;;;37.58;;
21761;SDS011;11203;50.870;20.682;2023-04-07T11:16:06;38.13;;;22.13;;
21761;SDS011;11203;50.870;20.682;2023-04-07T11:18:34;28.23;;;16.88;;
21761;SDS011;11203;50.870;20.682;2023-04-07T11:21:01;24.45;;;13.52;;
21761;SDS011;11203;50.870;20.682;2023-04-07T11:23:41;26.92;;;16.83;;
21761;SDS011;11203;50.870;20.682;2023-04-07T11:26:11;26.55;;;16.02;;
21761;SDS011;11203;50.870;20.682;2023-04-07T11:31:26;28.25;;;18.02;;
21761;SDS011;11203;50.870;20.682;2023-04-07T11:33:54;30.20;;;18.75;;
21761;SDS011;11203;50.870;20.682;2023-04-07T11:36:32;30.35;;;18.90;;
21761;SDS011;11203;50.870;20.682;2023-04-07T11:39:27;28.25;;;18.77;;
21761;SDS011;11203;50.870;20.682;2023-04-07T11:41:55;29.08;;;17.52;;
21761;SDS011;11203;50.870;20.682;2023-04-07T11:44:22;32.95;;;21.60;;
21761;SDS011;11203;50.870;20.682;2023-04-07T11:46:54;43.15;;;28.45;;
21761;SDS011;11203;50.870;20.682;2023-04-07T11:49:25;44.90;;;27.20;;
21761;SDS011;11203;50.870;20.682;2023-04-07T11:52:02;35.60;;;21.15;;
21761;SDS011;11203;50.870;20.682;2023-04-07T11:54:41;25.92;;;17.02;;
21761;SDS011;11203;50.870;20.682;2023-04-07T11:57:11;27.88;;;17.73;;
21761;SDS011;11203;50.870;20.682;2023-04-07T11:59:38;31.67;;;17.70;;
21761;SDS011;11203;50.870;20.682;2023-04-07T12:02:05;31.50;;;19.80;;
21761;SDS011;11203;50.870;20.682;2023-04-07T12:04:32;33.85;;;19.65;;
21761;SDS011;11203;50.870;20.682;2023-04-07T12:07:07;32.80;;;20.80;;
21761;SDS011;11203;50.870;20.682;2023-04-07T12:09:35;33.10;;;19.38;;
21761;SDS011;11203;50.870;20.682;2023-04-07T12:12:02;29.63;;;19.25;;
21761;SDS011;11203;50.870;20.682;2023-04-07T12:14:34;33.38;;;19.85;;
21761;SDS011;11203;50.870;20.682;2023-04-07T12:17:01;31.67;;;21.20;;
21761;SDS011;11203;50.870;20.682;2023-04-07T12:19:28;29.00;;;20.42;;
21761;SDS011;11203;50.870;20.682;2023-04-07T12:21:59;39.25;;;27.17;;
21761;SDS011;11203;50.870;20.682;2023-04-07T12:24:26;36.92;;;22.88;;
21761;SDS011;11203;50.870;20.682;2023-04-07T12:26:52;38.38;;;25.10;;
21761;SDS011;11203;50.870;20.682;2023-04-07T12:29:18;37.28;;;24.88;;
21761;SDS011;11203;50.870;20.682;2023-04-07T12:31:45;47.60;;;29.23;;
21761;SDS011;11203;50.870;20.682;2023-04-07T12:34:11;50.55;;;31.80;;
21761;SDS011;11203;50.870;20.682;2023-04-07T12:36:37;37.42;;;26.08;;
21761;SDS011;11203;50.870;20.682;2023-04-07T12:39:03;37.47;;;26.45;;
21761;SDS011;11203;50.870;20.682;2023-04-07T12:41:29;36.90;;;26.00;;
21761;SDS011;11203;50.870;20.682;2023-04-07T12:43:56;37.65;;;25.05;;
21761;SDS011;11203;50.870;20.682;2023-04-07T12:46:22;30.00;;;21.10;;
21761;SDS011;11203;50.870;20.682;2023-04-07T12:48:48;32.47;;;22.48;;
21761;SDS011;11203;50.870;20.682;2023-04-07T12:51:15;38.92;;;25.15;;
21761;SDS011;11203;50.870;20.682;2023-04-07T12:53:41;37.50;;;24.80;;
21761;SDS011;11203;50.870;20.682;2023-04-07T12:56:07;37.05;;;24.67;;
21761;SDS011;11203;50.870;20.682;2023-04-07T12:58:36;38.63;;;25.05;;
21761;SDS011;11203;50.870;20.682;2023-04-07T13:01:03;32.00;;;23.42;;
21761;SDS011;11203;50.870;20.682;2023-04-07T13:03:29;36.28;;;24.80;;
21761;SDS011;11203;50.870;20.682;2023-04-07T13:05:55;41.60;;;26.00;;
21761;SDS011;11203;50.870;20.682;2023-04-07T13:08:26;320.10;;;120.78;;
21761;SDS011;11203;50.870;20.682;2023-04-07T13:10:53;182.60;;;76.22;;
21761;SDS011;11203;50.870;20.682;2023-04-07T13:13:21;176.70;;;77.90;;
21761;SDS011;11203;50.870;20.682;2023-04-07T13:15:47;171.30;;;86.22;;
21761;SDS011;11203;50.870;20.682;2023-04-07T13:18:14;175.45;;;93.93;;
21761;SDS011;11203;50.870;20.682;2023-04-07T13:20:41;177.63;;;71.85;;
21761;SDS011;11203;50.870;20.682;2023-04-07T13:23:07;93.47;;;55.58;;
21761;SDS011;11203;50.870;20.682;2023-04-07T13:25:33;60.58;;;39.35;;
21761;SDS011;11203;50.870;20.682;2023-04-07T13:28:00;86.35;;;59.33;;
21761;SDS011;11203;50.870;20.682;2023-04-07T13:30:26;66.30;;;38.08;;
21761;SDS011;11203;50.870;20.682;2023-04-07T13:32:53;81.32;;;59.53;;
21761;SDS011;11203;50.870;20.682;2023-04-07T13:35:19;52.75;;;40.08;;
21761;SDS011;11203;50.870;20.682;2023-04-07T13:37:45;89.90;;;61.47;;
21761;SDS011;11203;50.870;20.682;2023-04-07T13:40:11;146.02;;;85.47;;
21761;SDS011;11203;50.870;20.682;2023-04-07T13:42:38;144.75;;;86.15;;
21761;SDS011;11203;50.870;20.682;2023-04-07T13:45:04;109.90;;;63.90;;
21761;SDS011;11203;50.870;20.682;2023-04-07T13:47:31;112.03;;;56.22;;
21761;SDS011;11203;50.870;20.682;2023-04-07T13:50:00;65.63;;;46.42;;
21761;SDS011;11203;50.870;20.682;2023-04-07T13:52:27;76.82;;;58.10;;
21761;SDS011;11203;50.870;20.682;2023-04-07T13:54:54;61.95;;;46.75;;
21761;SDS011;11203;50.870;20.682;2023-04-07T13:57:21;62.83;;;47.17;;
21761;SDS011;11203;50.870;20.682;2023-04-07T13:59:48;45.50;;;34.90;;
21761;SDS011;11203;50.870;20.682;2023-04-07T14:02:19;46.60;;;37.75;;
21761;SDS011;11203;50.870;20.682;2023-04-07T14:04:45;83.15;;;70.10;;
21761;SDS011;11203;50.870;20.682;2023-04-07T14:07:11;64.28;;;51.45;;
21761;SDS011;11203;50.870;20.682;2023-04-07T14:09:38;46.80;;;40.42;;
21761;SDS011;11203;50.870;20.682;2023-04-07T14:12:07;57.22;;;47.42;;
21761;SDS011;11203;50.870;20.682;2023-04-07T14:14:33;58.75;;;48.00;;
21761;SDS011;11203;50.870;20.682;2023-04-07T14:17:02;59.38;;;44.70;;
21761;SDS011;11203;50.870;20.682;2023-04-07T14:19:28;61.53;;;48.55;;
21761;SDS011;11203;50.870;20.682;2023-04-07T14:21:55;42.70;;;33.10;;
21761;SDS011;11203;50.870;20.682;2023-04-07T14:24:20;79.72;;;67.88;;
21761;SDS011;11203;50.870;20.682;2023-04-07T14:26:47;57.38;;;42.22;;
21761;SDS011;11203;50.870;20.682;2023-04-07T14:29:15;69.97;;;56.35;;
21761;SDS011;11203;50.870;20.682;2023-04-07T14:31:42;67.63;;;52.67;;
21761;SDS011;11203;50.870;20.682;2023-04-07T14:34:09;61.70;;;42.53;;
21761;SDS011;11203;50.870;20.682;2023-04-07T14:36:35;57.47;;;43.22;;
21761;SDS011;11203;50.870;20.682;2023-04-07T14:39:01;77.28;;;51.80;;
21761;SDS011;11203;50.870;20.682;2023-04-07T14:41:29;45.28;;;31.17;;
21761;SDS011;11203;50.870;20.682;2023-04-07T14:43:55;51.47;;;34.35;;
21761;SDS011;11203;50.870;20.682;2023-04-07T14:46:22;52.85;;;36.53;;